Time;durP1;ratioP1;P1;durP2;ratioP2;P2;SDS_P1;SDS_P2;PMS_P1;PMS_P2;Temp;Humidity;BMP_temperature;BMP_pressure;BME280_temperature;BME280_humidity;BME280_pressure;Samples;Min_cycle;Max_cycle;Signal;HPM_P1;HPM_P2
2022/02/16 00:00:55;;;;;;;1.58;1.48;;;6.30;99.90;;;;;;5114044;28;20585;-68
2022/02/16 00:03:22;;;;;;;2.10;1.85;;;6.20;99.90;;;;;;5113751;28;20227;-69
2022/02/16 00:05:50;;;;;;;2.45;1.80;;;6.20;99.90;;;;;;5113881;28;20228;-68
2022/02/16 00:08:17;;;;;;;2.40;1.60;;;6.20;99.90;;;;;;5114114;28;20211;-68
2022/02/16 00:10:44;;;;;;;2.00;1.90;;;6.20;99.90;;;;;;5113256;28;20229;-68
2022/02/16 00:13:11;;;;;;;2.78;1.83;;;6.20;99.90;;;;;;5113942;28;20198;-68
2022/02/16 00:15:38;;;;;;;2.90;1.83;;;6.20;99.90;;;;;;5113768;28;20629;-68
2022/02/16 00:18:06;;;;;;;5.90;1.80;;;6.20;99.90;;;;;;5113888;28;20585;-69
2022/02/16 00:20:33;;;;;;;1.90;1.80;;;6.30;99.90;;;;;;5113473;28;20197;-70
2022/02/16 00:23:01;;;;;;;1.50;1.40;;;6.30;99.90;;;;;;5113465;28;20202;-69
2022/02/16 00:25:28;;;;;;;3.88;1.42;;;6.40;99.90;;;;;;5113169;28;20228;-70
2022/02/16 00:27:55;;;;;;;1.73;1.60;;;6.40;99.90;;;;;;5113496;28;20209;-70
2022/02/16 00:30:22;;;;;;;1.90;1.80;;;6.40;99.90;;;;;;5113901;28;20292;-67
2022/02/16 00:32:49;;;;;;;3.00;1.90;;;6.30;99.90;;;;;;5113679;28;20197;-68
2022/02/16 00:35:15;;;;;;;2.22;1.60;;;6.30;99.90;;;;;;5113416;28;20228;-68
2022/02/16 00:37:42;;;;;;;1.98;1.73;;;6.30;99.90;;;;;;5113403;28;20201;-68
2022/02/16 00:40:12;;;;;;;3.45;1.80;;;6.30;99.90;;;;;;5113397;28;20660;-67
2022/02/16 00:42:39;;;;;;;2.25;1.90;;;6.40;99.90;;;;;;5113782;28;20618;-68
2022/02/16 00:45:06;;;;;;;1.73;1.60;;;6.40;99.90;;;;;;5113664;28;20221;-68
2022/02/16 00:47:34;;;;;;;1.60;1.50;;;6.40;99.90;;;;;;5113329;28;20204;-67
2022/02/16 00:50:00;;;;;;;1.80;1.60;;;6.40;99.90;;;;;;5113022;28;20202;-67
2022/02/16 00:52:27;;;;;;;2.88;1.70;;;6.40;99.90;;;;;;5113156;28;20205;-68
2022/02/16 00:54:54;;;;;;;2.15;1.50;;;6.40;99.90;;;;;;5113715;28;20201;-69
2022/02/16 00:57:23;;;;;;;1.77;1.52;;;6.50;99.90;;;;;;5113719;28;20249;-69
2022/02/16 00:59:50;;;;;;;2.95;1.60;;;6.50;99.90;;;;;;5113228;28;20824;-68
2022/02/16 01:02:17;;;;;;;3.10;1.83;;;6.50;99.90;;;;;;5113387;28;20212;-68
2022/02/16 01:04:44;;;;;;;1.63;1.52;;;6.50;99.90;;;;;;5113091;28;20221;-69
2022/02/16 01:07:11;;;;;;;1.92;1.48;;;6.60;99.90;;;;;;5113334;28;20233;-68
2022/02/16 01:09:37;;;;;;;2.78;1.45;;;6.60;99.90;;;;;;5113130;28;20207;-69
2022/02/16 01:12:05;;;;;;;3.22;1.80;;;6.60;99.90;;;;;;5112914;28;20569;-68
2022/02/16 01:14:33;;;;;;;1.85;1.60;;;6.70;99.90;;;;;;5112802;28;20280;-68
2022/02/16 01:17:00;;;;;;;2.53;1.85;;;6.80;99.90;;;;;;5112748;28;20225;-68
2022/02/16 01:19:27;;;;;;;2.40;1.60;;;6.80;99.90;;;;;;5112560;28;20201;-68
2022/02/16 01:21:54;;;;;;;2.33;1.58;;;6.80;99.90;;;;;;5112778;28;20215;-68
2022/02/16 01:24:21;;;;;;;1.48;1.38;;;6.80;99.90;;;;;;5115962;28;20316;-68
2022/02/16 01:26:48;;;;;;;2.75;1.35;;;6.80;99.90;;;;;;5116947;28;20217;-69
2022/02/16 01:29:15;;;;;;;3.30;1.80;;;6.80;99.90;;;;;;5117016;28;20730;-68
2022/02/16 01:31:43;;;;;;;3.28;1.30;;;6.80;99.90;;;;;;5116510;28;20209;-67
2022/02/16 01:34:10;;;;;;;2.67;1.50;;;6.80;99.90;;;;;;5116699;28;20203;-67
2022/02/16 01:36:37;;;;;;;2.67;1.65;;;6.90;99.90;;;;;;5117148;28;20586;-68
2022/02/16 01:39:04;;;;;;;2.55;1.27;;;6.80;99.90;;;;;;5116923;28;20205;-68
2022/02/16 01:41:31;;;;;;;2.38;1.23;;;6.80;99.90;;;;;;5116727;28;20297;-68
2022/02/16 01:43:59;;;;;;;1.67;1.58;;;6.80;99.90;;;;;;5117945;28;20575;-67
2022/02/16 01:46:26;;;;;;;4.07;1.60;;;6.90;99.90;;;;;;5117951;28;20220;-67
2022/02/16 01:48:54;;;;;;;1.10;1.10;;;6.90;99.90;;;;;;5117922;28;20308;-67
2022/02/16 01:51:21;;;;;;;5.13;1.52;;;7.00;99.90;;;;;;5117734;28;20201;-67
2022/02/16 01:53:48;;;;;;;2.15;1.70;;;7.00;99.90;;;;;;5117774;28;20201;-67
2022/02/16 01:56:15;;;;;;;2.00;1.60;;;6.90;99.90;;;;;;5117426;28;20231;-67
2022/02/16 01:58:43;;;;;;;2.78;1.60;;;6.90;99.90;;;;;;5117834;28;20197;-67
2022/02/16 02:01:10;;;;;;;1.52;1.42;;;6.90;99.90;;;;;;5117343;28;20201;-67
2022/02/16 02:03:37;;;;;;;1.60;1.50;;;7.00;99.90;;;;;;5117814;28;20558;-67
2022/02/16 02:06:05;;;;;;;2.38;1.38;;;6.90;99.90;;;;;;5117510;28;20225;-67
2022/02/16 02:08:32;;;;;;;2.05;1.20;;;6.90;99.90;;;;;;5117694;27;20202;-67
2022/02/16 02:10:59;;;;;;;1.85;1.25;;;7.00;99.90;;;;;;5117190;28;20288;-67
2022/02/16 02:13:26;;;;;;;3.28;1.55;;;7.00;99.90;;;;;;5117431;27;20296;-67
2022/02/16 02:15:53;;;;;;;1.75;1.60;;;7.00;99.90;;;;;;5117190;27;20221;-67
2022/02/16 02:18:21;;;;;;;3.90;1.75;;;7.00;99.90;;;;;;5117327;28;20292;-67
2022/02/16 02:20:50;;;;;;;1.73;1.60;;;7.00;99.90;;;;;;5117126;28;20197;-67
2022/02/16 02:23:17;;;;;;;1.70;1.30;;;6.90;99.90;;;;;;5117123;28;20693;-67
2022/02/16 02:25:45;;;;;;;2.03;1.50;;;6.90;99.90;;;;;;5117052;28;20312;-67
2022/02/16 02:28:12;;;;;;;1.48;1.35;;;6.90;99.90;;;;;;5117061;28;20231;-67
2022/02/16 02:30:38;;;;;;;2.80;1.52;;;6.80;99.90;;;;;;5117042;28;20300;-67
2022/02/16 02:33:05;;;;;;;1.85;1.50;;;6.80;99.90;;;;;;5117080;27;20571;-67
2022/02/16 02:35:32;;;;;;;2.25;1.40;;;6.90;99.90;;;;;;5116258;28;20226;-67
2022/02/16 02:38:00;;;;;;;1.65;1.30;;;6.90;99.90;;;;;;5117025;28;20292;-67
2022/02/16 02:40:28;;;;;;;2.30;1.50;;;7.00;99.90;;;;;;5116585;28;20762;-67
2022/02/16 02:42:54;;;;;;;1.45;1.25;;;6.90;99.90;;;;;;5116751;28;20202;-67
2022/02/16 02:45:21;;;;;;;1.90;1.27;;;6.90;99.90;;;;;;5116707;28;20229;-67
2022/02/16 02:47:48;;;;;;;1.55;1.30;;;6.90;99.90;;;;;;5116533;28;20295;-67
2022/02/16 02:50:15;;;;;;;1.50;1.40;;;6.90;99.90;;;;;;5116458;28;20233;-67
2022/02/16 02:52:42;;;;;;;2.08;1.30;;;6.90;99.90;;;;;;5116722;28;20630;-67
2022/02/16 02:55:13;;;;;;;2.60;1.20;;;6.90;99.90;;;;;;5116635;28;20194;-67
2022/02/16 02:57:40;;;;;;;1.60;1.40;;;6.90;99.90;;;;;;5116334;28;20276;-67
2022/02/16 03:00:09;;;;;;;2.40;1.50;;;7.00;99.90;;;;;;5116118;28;20276;-67
2022/02/16 03:02:36;;;;;;;3.17;1.40;;;7.00;99.90;;;;;;5116553;28;20205;-67
2022/02/16 03:05:04;;;;;;;1.30;1.17;;;7.10;99.90;;;;;;5116297;28;20228;-67
2022/02/16 03:07:31;;;;;;;1.95;1.40;;;7.10;99.90;;;;;;5116413;28;20289;-67
2022/02/16 03:09:58;;;;;;;1.73;1.20;;;7.10;99.90;;;;;;5116099;28;20284;-67
2022/02/16 03:12:26;;;;;;;2.60;1.30;;;7.10;99.90;;;;;;5116274;28;20197;-67
2022/02/16 03:14:53;;;;;;;1.27;1.10;;;7.20;99.90;;;;;;5116255;28;20219;-67
2022/02/16 03:17:20;;;;;;;1.70;1.10;;;7.10;99.90;;;;;;5115983;28;20217;-67
2022/02/16 03:19:47;;;;;;;1.00;1.00;;;7.00;99.90;;;;;;5115995;28;20201;-67
2022/02/16 03:22:14;;;;;;;4.43;1.40;;;7.00;99.90;;;;;;5116105;28;20198;-67
2022/02/16 03:24:41;;;;;;;2.63;1.05;;;7.10;99.90;;;;;;5115961;28;20217;-67
2022/02/16 03:27:07;;;;;;;2.15;1.27;;;7.10;99.90;;;;;;5115995;28;20240;-67
2022/02/16 03:29:35;;;;;;;2.70;1.20;;;7.10;99.90;;;;;;5115999;28;20566;-67
2022/02/16 03:32:02;;;;;;;1.10;0.88;;;7.10;99.90;;;;;;5115805;28;20214;-67
2022/02/16 03:34:29;;;;;;;1.92;0.95;;;7.10;99.90;;;;;;5115935;28;20288;-67
2022/02/16 03:36:56;;;;;;;1.30;0.93;;;7.10;99.90;;;;;;5115790;28;20221;-67
2022/02/16 03:39:23;;;;;;;3.83;1.20;;;7.10;99.90;;;;;;5115530;28;20678;-67
2022/02/16 03:41:50;;;;;;;1.20;1.10;;;7.10;99.90;;;;;;5115485;28;20635;-66
2022/02/16 03:44:17;;;;;;;1.20;1.10;;;7.20;99.90;;;;;;5115773;28;20210;-67
2022/02/16 03:46:46;;;;;;;1.85;1.00;;;7.20;99.90;;;;;;5114803;28;20228;-67
2022/02/16 03:49:13;;;;;;;1.50;1.08;;;7.20;99.90;;;;;;5115545;28;20248;-67
2022/02/16 03:51:40;;;;;;;2.45;1.02;;;7.20;99.90;;;;;;5115164;28;20303;-67
2022/02/16 03:54:07;;;;;;;0.98;0.98;;;7.20;99.90;;;;;;5115499;28;20293;-67
2022/02/16 03:56:34;;;;;;;0.77;0.77;;;7.20;99.90;;;;;;5115441;28;20308;-67
2022/02/16 03:59:01;;;;;;;1.20;0.80;;;7.20;99.90;;;;;;5115443;28;20204;-67
2022/02/16 04:01:28;;;;;;;1.10;1.00;;;7.30;99.90;;;;;;5115175;28;20205;-67
2022/02/16 04:03:56;;;;;;;1.20;1.15;;;7.30;99.90;;;;;;5115245;28;20231;-67
2022/02/16 04:06:23;;;;;;;0.88;0.88;;;7.30;99.90;;;;;;5114881;28;20602;-67
2022/02/16 04:08:50;;;;;;;0.95;0.90;;;7.30;99.90;;;;;;5115091;28;20205;-67
2022/02/16 04:11:19;;;;;;;1.67;0.80;;;7.40;99.90;;;;;;5115020;28;20559;-66
2022/02/16 04:13:46;;;;;;;0.80;0.80;;;7.30;99.90;;;;;;5115164;28;20541;-67
2022/02/16 04:16:13;;;;;;;4.65;1.20;;;7.40;99.90;;;;;;5114845;28;20304;-67
2022/02/16 04:18:39;;;;;;;1.48;0.90;;;7.40;99.90;;;;;;5115058;28;20292;-67
2022/02/16 04:21:08;;;;;;;1.17;0.77;;;7.40;99.90;;;;;;5115027;28;20227;-66
2022/02/16 04:23:34;;;;;;;1.10;0.77;;;7.40;99.90;;;;;;5114686;28;20198;-67
2022/02/16 04:26:01;;;;;;;1.20;1.00;;;7.40;99.90;;;;;;5115134;28;20229;-67
2022/02/16 04:28:28;;;;;;;1.88;0.90;;;7.40;99.90;;;;;;5114770;28;20217;-67
2022/02/16 04:30:55;;;;;;;0.70;0.70;;;7.50;99.90;;;;;;5114462;28;20208;-67
2022/02/16 04:33:23;;;;;;;3.10;1.55;;;7.50;99.90;;;;;;5114702;28;20202;-67
2022/02/16 04:35:50;;;;;;;1.75;0.70;;;7.50;99.90;;;;;;5114736;28;20243;-67
2022/02/16 04:38:18;;;;;;;1.10;1.00;;;7.50;99.90;;;;;;5114639;27;20207;-67
2022/02/16 04:40:45;;;;;;;0.82;0.82;;;7.60;99.90;;;;;;5114345;28;20296;-67
2022/02/16 04:43:12;;;;;;;1.30;0.80;;;7.70;99.90;;;;;;5114590;27;20208;-67
2022/02/16 04:45:39;;;;;;;0.82;0.75;;;7.70;99.90;;;;;;5114351;28;20233;-67
2022/02/16 04:48:07;;;;;;;1.70;1.00;;;7.70;99.90;;;;;;5114505;28;20206;-67
2022/02/16 04:50:34;;;;;;;0.88;0.88;;;7.60;99.90;;;;;;5114139;28;20738;-67
2022/02/16 04:53:01;;;;;;;0.90;0.90;;;7.70;99.90;;;;;;5114480;27;20197;-67
2022/02/16 04:55:30;;;;;;;0.70;0.70;;;7.70;99.90;;;;;;5114237;28;20217;-67
2022/02/16 04:57:56;;;;;;;0.88;0.80;;;7.70;99.90;;;;;;5114272;28;20205;-67
2022/02/16 05:00:25;;;;;;;1.65;0.63;;;7.70;99.90;;;;;;5114066;28;20695;-67
2022/02/16 05:02:52;;;;;;;0.88;0.80;;;7.70;99.90;;;;;;5114473;28;20559;-67
2022/02/16 05:05:19;;;;;;;0.80;0.70;;;7.70;99.90;;;;;;5114163;28;20378;-67
2022/02/16 05:07:46;;;;;;;0.63;0.63;;;7.80;99.90;;;;;;5114276;28;20296;-67
2022/02/16 05:10:12;;;;;;;0.70;0.70;;;7.70;99.90;;;;;;5113956;28;20204;-67
2022/02/16 05:12:41;;;;;;;4.03;3.05;;;7.80;99.90;;;;;;5114140;28;20197;-67
2022/02/16 05:15:08;;;;;;;0.85;0.85;;;7.80;99.90;;;;;;5114029;28;20197;-67
2022/02/16 05:17:36;;;;;;;0.70;0.68;;;7.80;99.90;;;;;;5114286;28;20617;-67
2022/02/16 05:20:03;;;;;;;1.10;1.00;;;7.80;99.90;;;;;;5113918;28;20197;-67
2022/02/16 05:22:30;;;;;;;0.90;0.80;;;7.80;99.90;;;;;;5114046;28;20205;-67
2022/02/16 05:24:58;;;;;;;0.98;0.80;;;7.80;99.90;;;;;;5113875;28;20205;-67
2022/02/16 05:27:25;;;;;;;0.82;0.65;;;7.80;99.90;;;;;;5113764;28;20235;-67
2022/02/16 05:29:53;;;;;;;1.35;0.75;;;7.80;99.90;;;;;;5113763;28;20675;-67
2022/02/16 05:32:20;;;;;;;0.80;0.80;;;7.70;99.90;;;;;;5113796;28;20207;-67
2022/02/16 05:34:46;;;;;;;0.88;0.85;;;7.80;99.90;;;;;;5114063;28;20287;-67
2022/02/16 05:37:13;;;;;;;0.85;0.70;;;7.70;99.90;;;;;;5113924;28;20217;-67
2022/02/16 05:39:40;;;;;;;1.27;0.70;;;7.70;99.90;;;;;;5113861;28;20213;-66
2022/02/16 05:42:08;;;;;;;0.85;0.63;;;7.70;99.90;;;;;;5114133;28;20205;-67
2022/02/16 05:44:35;;;;;;;0.90;0.90;;;7.70;99.90;;;;;;5113776;28;20197;-67
2022/02/16 05:47:04;;;;;;;0.60;0.55;;;7.70;99.90;;;;;;5113748;28;20315;-67
2022/02/16 05:49:31;;;;;;;1.00;0.63;;;7.60;99.90;;;;;;5113824;28;20197;-67
2022/02/16 05:51:57;;;;;;;0.70;0.63;;;7.70;99.90;;;;;;5113651;28;20204;-67
2022/02/16 05:54:24;;;;;;;1.73;1.40;;;7.60;99.90;;;;;;5113727;28;20203;-66
2022/02/16 05:56:51;;;;;;;0.95;0.80;;;7.70;99.90;;;;;;5113505;28;20725;-67
2022/02/16 05:59:18;;;;;;;0.70;0.70;;;7.70;99.90;;;;;;5113800;28;20292;-67
2022/02/16 06:01:45;;;;;;;1.00;1.00;;;7.70;99.90;;;;;;5113600;28;20563;-67
2022/02/16 06:04:16;;;;;;;0.60;0.60;;;7.70;99.90;;;;;;5113714;28;20204;-67
2022/02/16 06:06:42;;;;;;;1.13;0.50;;;7.70;99.90;;;;;;5113803;28;20226;-67
2022/02/16 06:09:09;;;;;;;1.02;0.80;;;7.80;99.90;;;;;;5114407;28;20198;-67
2022/02/16 06:11:36;;;;;;;0.80;0.80;;;7.70;99.90;;;;;;5117110;28;20208;-67
2022/02/16 06:14:03;;;;;;;0.80;0.80;;;7.70;99.90;;;;;;5117478;28;20209;-67
2022/02/16 06:16:30;;;;;;;1.08;0.70;;;7.70;99.90;;;;;;5117471;28;20221;-67
2022/02/16 06:18:57;;;;;;;0.60;0.60;;;7.70;99.90;;;;;;5117368;28;20274;-67
2022/02/16 06:21:25;;;;;;;1.10;0.77;;;7.70;99.90;;;;;;5116961;27;20208;-67
2022/02/16 06:23:52;;;;;;;0.60;0.60;;;7.80;99.90;;;;;;5117198;28;20262;-67
2022/02/16 06:26:19;;;;;;;0.70;0.70;;;7.70;99.90;;;;;;5117171;28;20229;-67
2022/02/16 06:28:46;;;;;;;0.70;0.70;;;7.70;99.90;;;;;;5116989;28;20209;-67
2022/02/16 06:31:13;;;;;;;0.80;0.50;;;7.80;99.90;;;;;;5116840;28;20297;-67
2022/02/16 06:33:40;;;;;;;0.60;0.60;;;7.80;99.90;;;;;;5117085;28;20201;-67
2022/02/16 06:36:07;;;;;;;0.60;0.60;;;7.80;99.90;;;;;;5116912;28;20312;-67
2022/02/16 06:38:35;;;;;;;0.70;0.70;;;7.80;99.90;;;;;;5116779;28;20681;-67
2022/02/16 06:41:02;;;;;;;0.70;0.50;;;7.80;99.90;;;;;;5116676;28;20663;-67
2022/02/16 06:43:29;;;;;;;0.70;0.70;;;7.80;99.90;;;;;;5116921;28;20212;-67
2022/02/16 06:45:55;;;;;;;0.70;0.60;;;7.80;99.90;;;;;;5116673;28;20594;-67
2022/02/16 06:48:22;;;;;;;0.63;0.60;;;7.80;99.90;;;;;;5116883;28;20231;-67
2022/02/16 06:50:49;;;;;;;0.95;0.52;;;7.80;99.90;;;;;;5116433;28;20206;-67
2022/02/16 06:53:16;;;;;;;0.60;0.50;;;7.80;99.90;;;;;;5116498;27;20204;-67
2022/02/16 06:55:44;;;;;;;1.00;0.60;;;7.80;99.90;;;;;;5116593;28;20308;-67
2022/02/16 06:58:11;;;;;;;1.10;0.70;;;7.80;99.90;;;;;;5116655;28;20201;-67
2022/02/16 07:00:40;;;;;;;0.70;0.63;;;7.80;99.90;;;;;;5116420;28;20205;-67
2022/02/16 07:03:06;;;;;;;0.70;0.70;;;7.90;99.90;;;;;;5116724;28;20205;-67
2022/02/16 07:05:33;;;;;;;0.52;0.52;;;7.90;99.90;;;;;;5116433;28;20243;-67
2022/02/16 07:08:00;;;;;;;0.68;0.57;;;7.90;99.90;;;;;;5116426;28;20198;-67
2022/02/16 07:10:27;;;;;;;0.75;0.60;;;8.00;99.90;;;;;;5116230;28;20248;-67
2022/02/16 07:12:55;;;;;;;0.70;0.70;;;8.00;99.90;;;;;;5116320;28;20296;-67
2022/02/16 07:15:22;;;;;;;0.70;0.70;;;8.00;99.90;;;;;;5116688;28;20208;-67
2022/02/16 07:17:48;;;;;;;1.02;0.70;;;7.90;99.90;;;;;;5116280;28;20211;-67
2022/02/16 07:20:16;;;;;;;4.00;2.50;;;7.80;99.90;;;;;;5115123;28;20201;-67
2022/02/16 07:22:44;;;;;;;0.65;0.65;;;7.80;99.90;;;;;;5115915;28;20197;-67
2022/02/16 07:25:12;;;;;;;0.73;0.73;;;7.80;99.90;;;;;;5115995;28;20197;-67
2022/02/16 07:27:39;;;;;;;1.25;0.60;;;7.80;99.90;;;;;;5115824;28;20221;-67
2022/02/16 07:30:10;;;;;;;0.95;0.95;;;7.80;99.90;;;;;;5115798;28;20206;-67
2022/02/16 07:32:38;;;;;;;1.00;1.00;;;7.80;99.90;;;;;;5115775;28;20201;-67
2022/02/16 07:35:06;;;;;;;1.55;1.10;;;7.80;99.90;;;;;;5115964;28;20567;-67
2022/02/16 07:37:33;;;;;;;1.20;1.10;;;7.70;99.90;;;;;;5115941;28;20201;-67
2022/02/16 07:40:00;;;;;;;0.70;0.70;;;7.80;99.90;;;;;;5115632;28;20209;-67
2022/02/16 07:42:27;;;;;;;0.82;0.82;;;7.70;99.90;;;;;;5115799;28;20204;-67
2022/02/16 07:44:55;;;;;;;3.00;2.35;;;7.60;99.90;;;;;;5115668;28;20566;-67
2022/02/16 07:47:23;;;;;;;1.02;0.90;;;7.70;99.90;;;;;;5115609;28;20225;-67
2022/02/16 07:49:50;;;;;;;0.82;0.82;;;7.70;99.90;;;;;;5115276;28;20201;-66
2022/02/16 07:52:17;;;;;;;0.95;0.95;;;7.70;99.90;;;;;;5115499;28;20693;-67
2022/02/16 07:54:44;;;;;;;1.02;0.95;;;7.60;99.90;;;;;;5115488;28;20667;-67
2022/02/16 07:57:11;;;;;;;1.20;0.93;;;7.60;99.90;;;;;;5115554;28;20221;-67
2022/02/16 07:59:38;;;;;;;0.90;0.90;;;7.60;99.90;;;;;;5115377;28;20212;-67
2022/02/16 08:02:05;;;;;;;0.88;0.88;;;7.50;99.90;;;;;;5115473;27;20197;-66
2022/02/16 08:04:33;;;;;;;2.42;1.17;;;7.40;99.90;;;;;;5115428;28;20570;-67
2022/02/16 08:07:01;;;;;;;3.92;1.20;;;7.40;99.90;;;;;;5114849;28;20232;-67
2022/02/16 08:09:28;;;;;;;1.48;1.00;;;7.50;99.90;;;;;;5115278;28;20201;-67
2022/02/16 08:11:55;;;;;;;1.20;1.10;;;7.50;99.90;;;;;;5115070;28;20567;-67
2022/02/16 08:14:22;;;;;;;1.65;1.55;;;7.50;99.90;;;;;;5115338;28;20563;-67
2022/02/16 08:16:49;;;;;;;0.80;0.80;;;7.50;99.90;;;;;;5114971;28;20223;-67
2022/02/16 08:19:16;;;;;;;0.98;0.95;;;7.40;99.90;;;;;;5115421;28;20570;-67
2022/02/16 08:21:44;;;;;;;1.40;1.30;;;7.50;99.90;;;;;;5115054;28;20205;-67
2022/02/16 08:24:12;;;;;;;3.65;2.05;;;7.50;99.90;;;;;;5115347;28;20555;-67
2022/02/16 08:26:39;;;;;;;1.65;1.52;;;7.40;99.90;;;;;;5114761;28;20274;-68
2022/02/16 08:29:06;;;;;;;1.73;1.40;;;7.40;99.90;;;;;;5115064;28;20207;-67
2022/02/16 08:31:33;;;;;;;1.73;1.10;;;7.40;99.90;;;;;;5114468;28;20201;-67
2022/02/16 08:34:00;;;;;;;1.00;1.00;;;7.30;99.90;;;;;;5115051;28;20201;-67
2022/02/16 08:36:27;;;;;;;1.83;1.30;;;7.40;99.90;;;;;;5114641;28;20264;-67
2022/02/16 08:38:55;;;;;;;1.45;1.35;;;7.40;99.90;;;;;;5113049;28;20202;-67
2022/02/16 08:41:22;;;;;;;1.50;1.40;;;7.30;99.90;;;;;;5112495;28;20239;-68
2022/02/16 08:43:49;;;;;;;1.30;1.20;;;7.30;99.90;;;;;;5113658;28;20215;-67
2022/02/16 08:46:16;;;;;;;0.85;0.85;;;7.40;99.90;;;;;;5113226;28;20243;-67
2022/02/16 08:48:43;;;;;;;1.80;1.27;;;7.40;99.90;;;;;;5113455;28;20208;-68
2022/02/16 08:51:11;;;;;;;1.50;1.40;;;7.50;99.90;;;;;;5112933;28;20579;-67
2022/02/16 08:53:38;;;;;;;1.30;0.90;;;7.50;99.90;;;;;;5112811;28;20205;-69
2022/02/16 08:56:07;;;;;;;4.05;3.40;;;7.50;99.90;;;;;;5113324;28;20579;-69
2022/02/16 08:58:33;;;;;;;1.50;0.95;;;7.40;99.90;;;;;;5113408;28;20629;-67
2022/02/16 09:01:01;;;;;;;0.95;0.77;;;7.40;99.90;;;;;;5112710;28;20209;-67
2022/02/16 09:03:29;;;;;;;0.88;0.88;;;7.40;99.90;;;;;;5112949;28;20499;-67
2022/02/16 09:05:56;;;;;;;1.90;1.20;;;7.40;99.90;;;;;;5112849;28;20726;-68
2022/02/16 09:08:23;;;;;;;0.98;0.88;;;7.30;99.90;;;;;;5112966;28;20208;-67
2022/02/16 09:10:50;;;;;;;1.00;1.00;;;7.40;99.90;;;;;;5112889;28;20304;-67
2022/02/16 09:13:18;;;;;;;1.45;1.10;;;7.30;99.90;;;;;;5112717;28;20300;-67
2022/02/16 09:15:44;;;;;;;1.52;0.95;;;7.30;99.90;;;;;;5112915;28;20218;-67
2022/02/16 09:18:11;;;;;;;1.27;1.17;;;7.40;99.90;;;;;;5113232;28;20654;-67
2022/02/16 09:20:38;;;;;;;0.80;0.80;;;7.30;99.90;;;;;;5113165;28;20289;-67
2022/02/16 09:23:05;;;;;;;0.80;0.80;;;7.40;99.90;;;;;;5112505;28;20234;-67
2022/02/16 09:25:33;;;;;;;0.80;0.80;;;7.40;99.90;;;;;;5112792;28;20229;-67
2022/02/16 09:28:00;;;;;;;0.70;0.70;;;7.40;99.90;;;;;;5113068;28;20231;-67
2022/02/16 09:30:28;;;;;;;0.90;0.90;;;7.50;99.90;;;;;;5113024;28;20197;-67
2022/02/16 09:32:55;;;;;;;1.13;0.80;;;7.50;99.90;;;;;;5112454;28;20201;-67
2022/02/16 09:35:21;;;;;;;1.23;0.90;;;7.50;99.90;;;;;;5113208;28;20205;-67
2022/02/16 09:37:48;;;;;;;1.90;1.30;;;7.60;99.90;;;;;;5114021;28;20197;-67
2022/02/16 09:40:16;;;;;;;1.73;1.02;;;7.50;99.90;;;;;;5113802;28;20197;-67
2022/02/16 09:42:44;;;;;;;5.38;3.67;;;7.50;99.90;;;;;;5114068;28;20205;-67
2022/02/16 09:45:13;;;;;;;2.97;1.15;;;7.50;99.90;;;;;;5116889;28;20201;-67
2022/02/16 09:47:43;;;;;;;0.90;0.90;;;7.50;99.90;;;;;;5117973;28;20231;-67
2022/02/16 09:50:11;;;;;;;1.63;0.90;;;7.60;99.90;;;;;;5117887;28;20196;-66
2022/02/16 09:52:39;;;;;;;0.70;0.70;;;7.60;99.90;;;;;;5117977;28;20690;-67
2022/02/16 09:55:06;;;;;;;1.42;1.00;;;7.60;99.90;;;;;;5117814;28;20209;-67
2022/02/16 09:57:33;;;;;;;0.90;0.90;;;7.70;99.90;;;;;;5117943;28;20193;-67
2022/02/16 10:00:00;;;;;;;1.40;0.93;;;7.70;99.90;;;;;;5117614;28;20620;-67
2022/02/16 10:02:35;;;;;;;1.40;0.80;;;7.80;99.90;;;;;;5117664;28;20197;-67
2022/02/16 10:05:05;;;;;;;0.77;0.77;;;7.80;99.90;;;;;;5117725;28;20299;-67
2022/02/16 10:07:35;;;;;;;1.20;0.90;;;7.90;99.90;;;;;;5117668;28;20218;-67
2022/02/16 10:10:13;;;;;;;0.85;0.85;;;8.00;99.90;;;;;;5117256;28;20205;-67
2022/02/16 10:12:40;;;;;;;0.65;0.65;;;8.00;99.90;;;;;;5117323;28;20292;-67
2022/02/16 10:15:07;;;;;;;0.88;0.88;;;8.00;99.90;;;;;;5117111;28;20296;-67
2022/02/16 10:17:34;;;;;;;1.48;0.80;;;8.00;99.90;;;;;;5117491;28;20193;-68
2022/02/16 10:20:05;;;;;;;0.70;0.70;;;8.10;99.90;;;;;;5117206;28;20208;-67
2022/02/16 10:22:42;;;;;;;0.80;0.80;;;8.20;99.90;;;;;;5117364;28;20201;-67
2022/02/16 10:25:12;;;;;;;0.82;0.70;;;8.30;99.90;;;;;;5116983;28;20200;-67
2022/02/16 10:27:39;;;;;;;1.52;1.20;;;8.40;99.90;;;;;;5117138;27;20225;-67
2022/02/16 10:30:14;;;;;;;1.02;0.60;;;8.30;99.90;;;;;;5116984;28;20746;-67
2022/02/16 10:32:41;;;;;;;0.60;0.60;;;8.40;99.90;;;;;;5117147;28;20207;-67
2022/02/16 10:35:10;;;;;;;0.60;0.60;;;8.50;99.90;;;;;;5117066;28;20674;-67
2022/02/16 10:37:40;;;;;;;0.70;0.70;;;8.60;99.90;;;;;;5117046;28;20202;-67
2022/02/16 10:40:14;;;;;;;0.60;0.50;;;8.70;99.90;;;;;;5116816;28;20205;-67
2022/02/16 10:42:52;;;;;;;0.90;0.80;;;8.70;99.90;;;;;;5116998;28;20262;-67
2022/02/16 10:45:21;;;;;;;1.35;1.25;;;8.80;99.90;;;;;;5116820;28;20211;-67
2022/02/16 10:47:56;;;;;;;0.80;0.68;;;8.90;99.90;;;;;;5116798;27;20259;-67
2022/02/16 10:50:26;;;;;;;0.60;0.60;;;8.90;99.90;;;;;;5116642;28;20201;-67
2022/02/16 10:52:55;;;;;;;0.63;0.60;;;9.00;99.90;;;;;;5116751;28;20202;-67
2022/02/16 10:55:45;;;;;;;1.00;0.90;;;9.10;99.90;;;;;;5116104;28;20202;-67
2022/02/16 10:58:13;;;;;;;0.60;0.60;;;9.20;99.90;;;;;;5116752;28;20186;-67
2022/02/16 11:00:42;;;;;;;0.70;0.70;;;9.30;99.90;;;;;;5116241;28;20693;-67
2022/02/16 11:03:10;;;;;;;0.60;0.50;;;9.50;99.90;;;;;;5116623;28;20205;-67
2022/02/16 11:05:43;;;;;;;0.60;0.60;;;9.70;99.90;;;;;;5116389;28;20308;-67
2022/02/16 11:08:13;;;;;;;0.50;0.50;;;9.70;99.90;;;;;;5116470;28;20201;-67
2022/02/16 11:10:41;;;;;;;0.70;0.70;;;9.80;99.90;;;;;;5116206;28;20236;-67
2022/02/16 11:13:08;;;;;;;0.60;0.60;;;9.90;99.90;;;;;;5116450;28;20197;-67
2022/02/16 11:15:35;;;;;;;1.00;0.90;;;10.00;99.90;;;;;;5116077;28;20217;-67
2022/02/16 11:18:11;;;;;;;0.70;0.60;;;10.00;99.90;;;;;;5116353;28;20288;-67
2022/02/16 11:20:39;;;;;;;0.73;0.73;;;10.00;99.90;;;;;;5116007;28;20205;-67
2022/02/16 11:23:06;;;;;;;0.80;0.80;;;10.00;99.90;;;;;;5116262;28;20232;-67
2022/02/16 11:25:36;;;;;;;0.88;0.75;;;10.00;99.90;;;;;;5116282;28;20672;-67
2022/02/16 11:28:05;;;;;;;0.50;0.50;;;10.20;99.90;;;;;;5116112;28;20591;-67
2022/02/16 11:30:34;;;;;;;0.70;0.70;;;10.20;99.90;;;;;;5116058;28;20596;-67
2022/02/16 11:33:12;;;;;;;1.25;0.70;;;10.30;99.90;;;;;;5115926;28;20321;-67
2022/02/16 11:35:52;;;;;;;2.15;0.80;;;10.50;99.90;;;;;;5115907;28;20224;-67
2022/02/16 11:38:21;;;;;;;0.55;0.55;;;10.50;99.90;;;;;;5115776;28;20192;-67
2022/02/16 11:40:50;;;;;;;1.58;0.70;;;10.60;99.90;;;;;;5115793;28;20204;-67
2022/02/16 11:43:19;;;;;;;0.50;0.50;;;10.70;99.90;;;;;;5115720;28;20207;-67
2022/02/16 11:46:00;;;;;;;0.70;0.65;;;10.80;99.90;;;;;;5116053;28;20217;-67
2022/02/16 11:48:48;;;;;;;0.60;0.60;;;10.80;99.90;;;;;;5116206;28;20568;-66
2022/02/16 11:51:39;;;;;;;0.60;0.60;;;10.80;99.90;;;;;;5115771;28;20202;-67
2022/02/16 11:54:55;;;;;;;0.70;0.70;;;10.80;99.90;;;;;;5115690;28;20205;-67
2022/02/16 11:57:44;;;;;;;0.80;0.80;;;10.90;99.90;;;;;;5115930;28;20222;-67
2022/02/16 12:00:30;;;;;;;1.70;0.70;;;10.90;99.90;;;;;;5115280;28;20205;-67
2022/02/16 12:03:14;;;;;;;0.68;0.63;;;10.90;99.90;;;;;;5115248;27;20201;-67
2022/02/16 12:05:49;;;;;;;0.75;0.75;;;11.00;99.90;;;;;;5115886;28;20225;-67
2022/02/16 12:08:20;;;;;;;0.70;0.70;;;11.00;99.90;;;;;;5114416;28;20316;-67
2022/02/16 12:10:48;;;;;;;1.15;0.75;;;11.00;99.90;;;;;;5115322;28;20204;-66
2022/02/16 12:13:16;;;;;;;0.70;0.70;;;10.90;99.90;;;;;;5115035;28;20201;-67
2022/02/16 12:15:43;;;;;;;0.80;0.80;;;11.00;99.90;;;;;;5115116;28;20221;-67
2022/02/16 12:18:14;;;;;;;1.15;0.63;;;11.00;99.90;;;;;;5115074;28;20193;-67
2022/02/16 12:20:41;;;;;;;1.83;0.70;;;11.10;99.90;;;;;;5115076;28;20201;-67
2022/02/16 12:23:08;;;;;;;0.70;0.70;;;11.00;99.90;;;;;;5115138;28;20299;-67
2022/02/16 12:25:36;;;;;;;0.80;0.80;;;11.00;99.90;;;;;;5115275;28;20258;-67
2022/02/16 12:28:05;;;;;;;0.90;0.90;;;11.00;99.90;;;;;;5115116;28;20332;-67
2022/02/16 12:30:34;;;;;;;0.82;0.60;;;11.00;99.90;;;;;;5114789;28;20212;-67
2022/02/16 12:33:01;;;;;;;0.95;0.95;;;11.10;99.90;;;;;;5114782;28;20208;-67
2022/02/16 12:35:28;;;;;;;0.40;0.40;;;11.10;99.90;;;;;;5114743;28;20224;-67
2022/02/16 12:37:55;;;;;;;0.63;0.40;;;11.00;99.90;;;;;;5114825;28;20229;-67
2022/02/16 12:40:24;;;;;;;0.40;0.32;;;11.00;99.90;;;;;;5114589;28;20300;-67
2022/02/16 12:42:52;;;;;;;2.00;1.20;;;11.00;99.90;;;;;;5114613;28;20567;-67
2022/02/16 12:45:21;;;;;;;1.35;1.25;;;11.00;99.90;;;;;;5114269;28;20205;-66
2022/02/16 12:47:48;;;;;;;0.50;0.43;;;11.00;99.90;;;;;;5114603;28;20221;-67
2022/02/16 12:50:16;;;;;;;0.85;0.52;;;11.00;99.90;;;;;;5114645;28;20270;-67
2022/02/16 12:52:43;;;;;;;0.60;0.50;;;10.90;99.90;;;;;;5114578;28;20205;-67
2022/02/16 12:55:10;;;;;;;0.70;0.70;;;11.00;99.90;;;;;;5114383;28;20280;-67
2022/02/16 12:57:38;;;;;;;1.02;0.70;;;11.00;99.90;;;;;;5114715;28;20198;-67
2022/02/16 13:03:00;;;;;;;0.80;0.60;;;11.00;99.90;;;;;;5114460;28;20201;-67